Time;durP1;ratioP1;P1;durP2;ratioP2;P2;SDS_P1;SDS_P2;PMS_P1;PMS_P2;Temp;Humidity;BMP_temperature;BMP_pressure;BME280_temperature;BME280_humidity;BME280_pressure;Samples;Min_cycle;Max_cycle;Signal;HPM_P1;HPM_P2
2021/08/23 00:02:32;;;;;;;3.85;1.58;;;25.50;46.30;;;;;;6250137;28;20022;-78
2021/08/23 00:05:33;;;;;;;2.45;1.52;;;25.40;46.40;;;;;;6249006;28;20029;-78
2021/08/23 00:08:34;;;;;;;3.10;1.30;;;25.40;46.50;;;;;;6248982;28;20056;-78
2021/08/23 00:11:36;;;;;;;4.80;1.90;;;25.30;46.60;;;;;;6248118;28;20098;-78
2021/08/23 00:14:37;;;;;;;3.95;1.65;;;25.30;46.70;;;;;;6247882;28;20053;-77
2021/08/23 00:17:38;;;;;;;2.75;1.42;;;25.30;46.70;;;;;;6249769;28;20035;-77
2021/08/23 00:20:42;;;;;;;1.92;1.40;;;25.20;46.70;;;;;;6248931;28;20112;-77
2021/08/23 00:23:50;;;;;;;2.55;1.63;;;25.20;46.70;;;;;;6248236;28;20042;-78
2021/08/23 00:26:57;;;;;;;3.75;1.50;;;25.20;46.70;;;;;;6265578;28;20037;-77
2021/08/23 00:29:58;;;;;;;4.13;1.42;;;25.10;46.70;;;;;;6273795;28;20125;-77
2021/08/23 00:32:59;;;;;;;3.05;1.50;;;25.10;46.80;;;;;;6261728;28;20045;-77
2021/08/23 00:36:00;;;;;;;1.85;1.27;;;25.10;46.80;;;;;;6231837;28;20057;-77
2021/08/23 00:39:02;;;;;;;5.00;1.33;;;25.00;46.80;;;;;;6247608;28;20033;-77
2021/08/23 00:42:04;;;;;;;2.65;1.60;;;25.00;46.80;;;;;;6248518;28;20030;-77
2021/08/23 00:45:07;;;;;;;3.78;1.33;;;25.00;46.80;;;;;;6247787;28;20037;-77
2021/08/23 00:48:09;;;;;;;7.60;1.80;;;24.90;46.80;;;;;;6248456;28;20044;-77
2021/08/23 00:51:10;;;;;;;2.40;1.45;;;24.90;46.60;;;;;;6248384;28;20044;-77
2021/08/23 00:54:11;;;;;;;5.03;1.50;;;24.90;46.60;;;;;;6231458;28;20069;-77
2021/08/23 00:57:12;;;;;;;2.10;1.48;;;24.90;46.70;;;;;;6249001;28;20477;-77
2021/08/23 01:00:13;;;;;;;4.35;1.70;;;24.90;46.70;;;;;;6248809;28;20159;-78
2021/08/23 01:03:30;;;;;;;3.67;1.52;;;24.90;46.80;;;;;;6248452;28;20045;-77
2021/08/23 01:06:32;;;;;;;2.47;1.30;;;24.80;46.80;;;;;;6245870;28;20041;-77
2021/08/23 01:09:38;;;;;;;3.22;1.38;;;24.80;46.90;;;;;;6245919;28;20116;-77
2021/08/23 01:12:40;;;;;;;4.70;1.30;;;24.80;47.00;;;;;;6246594;28;20037;-77
2021/08/23 01:15:41;;;;;;;4.40;1.58;;;24.70;46.90;;;;;;6246293;28;20041;-77
2021/08/23 01:18:45;;;;;;;2.70;1.40;;;24.70;46.90;;;;;;6246431;28;20048;-77
2021/08/23 01:21:50;;;;;;;4.68;1.27;;;24.70;47.00;;;;;;6240776;28;20124;-77
2021/08/23 01:24:53;;;;;;;4.35;1.27;;;24.60;47.00;;;;;;6268740;28;20064;-77
2021/08/23 01:28:28;;;;;;;3.38;1.20;;;24.60;47.10;;;;;;6271170;28;20519;-77
2021/08/23 01:31:55;;;;;;;3.70;1.20;;;24.60;47.20;;;;;;6272353;28;20029;-77
2021/08/23 01:34:57;;;;;;;2.15;1.40;;;24.50;47.30;;;;;;6221320;28;20040;-77
2021/08/23 01:37:59;;;;;;;2.72;1.65;;;24.50;47.30;;;;;;6224034;28;20540;-77
2021/08/23 01:41:01;;;;;;;5.95;1.35;;;24.40;47.40;;;;;;6244744;28;20342;-77
2021/08/23 01:44:02;;;;;;;2.33;1.48;;;24.40;47.50;;;;;;6245138;28;20036;-77
2021/08/23 01:47:03;;;;;;;1.63;1.10;;;24.40;47.40;;;;;;6244738;28;20029;-78
2021/08/23 01:50:05;;;;;;;4.68;1.90;;;24.40;47.50;;;;;;6244841;28;20037;-77
2021/08/23 01:53:06;;;;;;;3.13;1.58;;;24.30;47.40;;;;;;6245998;28;20466;-77
2021/08/23 01:56:07;;;;;;;2.97;1.30;;;24.30;47.40;;;;;;6245895;28;20044;-77
2021/08/23 01:59:08;;;;;;;4.15;1.30;;;24.30;47.40;;;;;;6239872;28;20040;-77
2021/08/23 02:02:09;;;;;;;3.10;1.42;;;24.30;47.50;;;;;;6243596;28;20045;-77
2021/08/23 02:05:14;;;;;;;2.55;1.17;;;24.20;47.40;;;;;;6241111;28;20029;-77
2021/08/23 02:08:16;;;;;;;6.57;1.85;;;24.20;47.40;;;;;;6243776;28;20029;-77
2021/08/23 02:11:17;;;;;;;3.40;1.42;;;24.20;47.40;;;;;;6244695;28;20052;-77
2021/08/23 02:14:19;;;;;;;2.30;1.60;;;24.20;47.50;;;;;;6244374;28;20041;-76
2021/08/23 02:17:19;;;;;;;3.17;1.85;;;24.20;47.50;;;;;;6258002;28;20045;-77
2021/08/23 02:20:20;;;;;;;2.88;1.25;;;24.10;47.30;;;;;;6251482;28;20358;-77
2021/08/23 02:23:21;;;;;;;3.72;1.45;;;24.10;47.40;;;;;;6268481;28;20108;-77
2021/08/23 02:26:22;;;;;;;4.20;1.23;;;24.00;47.40;;;;;;6274142;28;20029;-77
2021/08/23 02:29:23;;;;;;;3.08;1.40;;;24.00;47.40;;;;;;6277920;28;20040;-77
2021/08/23 02:32:25;;;;;;;3.70;1.48;;;24.00;47.40;;;;;;6230115;28;20319;-77
2021/08/23 02:35:26;;;;;;;3.13;1.42;;;24.00;47.50;;;;;;6234053;28;20057;-77
2021/08/23 02:38:27;;;;;;;3.72;1.45;;;23.90;47.50;;;;;;6231517;28;20124;-76
2021/08/23 02:41:28;;;;;;;4.32;1.70;;;23.90;47.50;;;;;;6250685;28;20040;-75
2021/08/23 02:44:29;;;;;;;2.10;1.30;;;23.90;47.50;;;;;;6272201;28;20441;-79
2021/08/23 02:47:30;;;;;;;2.58;1.27;;;23.90;47.40;;;;;;6270218;28;20041;-76
2021/08/23 02:50:31;;;;;;;4.53;1.50;;;23.90;47.50;;;;;;6272555;28;20063;-77
2021/08/23 02:53:32;;;;;;;3.35;1.35;;;23.90;47.50;;;;;;6273056;28;20114;-76
2021/08/23 02:56:32;;;;;;;2.47;1.45;;;23.90;47.50;;;;;;6272988;28;20033;-76
2021/08/23 02:59:35;;;;;;;3.60;1.70;;;23.90;47.50;;;;;;6256666;28;20040;-76
2021/08/23 03:02:36;;;;;;;1.70;1.52;;;23.90;47.50;;;;;;6239481;28;20454;-77
2021/08/23 03:05:37;;;;;;;3.25;1.10;;;23.90;47.50;;;;;;6224010;28;20459;-77
2021/08/23 03:08:39;;;;;;;2.22;1.30;;;23.80;47.50;;;;;;6223932;28;20074;-77
2021/08/23 03:11:40;;;;;;;4.03;1.52;;;23.80;47.50;;;;;;6238639;28;20045;-76
2021/08/23 03:14:42;;;;;;;1.38;1.00;;;23.80;47.50;;;;;;6248030;28;20060;-77
2021/08/23 03:17:43;;;;;;;5.32;1.45;;;23.70;47.40;;;;;;6247487;28;20045;-77
2021/08/23 03:20:43;;;;;;;2.38;1.10;;;23.80;47.50;;;;;;6230283;28;20072;-77
2021/08/23 03:23:44;;;;;;;8.13;1.40;;;23.70;47.50;;;;;;6248053;28;20087;-78
2021/08/23 03:26:45;;;;;;;3.97;1.42;;;23.70;47.70;;;;;;6247466;28;20466;-77
2021/08/23 03:29:50;;;;;;;3.65;1.30;;;23.70;47.80;;;;;;6246938;28;20130;-77
2021/08/23 03:32:51;;;;;;;2.60;1.33;;;23.70;47.80;;;;;;6247278;28;20052;-78
2021/08/23 03:35:52;;;;;;;2.65;1.13;;;23.60;47.70;;;;;;6227102;28;20033;-78
2021/08/23 03:38:55;;;;;;;5.90;1.08;;;23.60;47.70;;;;;;6269536;28;20036;-77
2021/08/23 03:41:56;;;;;;;3.20;1.10;;;23.60;47.70;;;;;;6230334;28;20104;-77
2021/08/23 03:44:57;;;;;;;1.88;1.13;;;23.60;47.70;;;;;;6245170;28;20040;-77
2021/08/23 03:47:59;;;;;;;1.80;1.10;;;23.60;47.60;;;;;;6246446;28;20195;-77
2021/08/23 03:51:00;;;;;;;3.28;1.23;;;23.60;47.50;;;;;;6247143;28;20059;-77
2021/08/23 03:54:01;;;;;;;4.53;1.25;;;23.60;47.40;;;;;;6248148;28;20037;-78
2021/08/23 03:57:02;;;;;;;3.33;1.27;;;23.60;47.50;;;;;;6247371;28;20103;-78
2021/08/23 04:00:06;;;;;;;1.92;1.08;;;23.60;47.50;;;;;;6221592;28;20469;-78
2021/08/23 04:03:07;;;;;;;2.58;1.27;;;23.50;47.50;;;;;;6246290;28;20048;-78
2021/08/23 04:06:12;;;;;;;3.05;1.45;;;23.50;47.40;;;;;;6246824;28;20025;-78
2021/08/23 04:09:13;;;;;;;4.47;1.10;;;23.50;47.40;;;;;;6246461;28;20033;-78
2021/08/23 04:12:21;;;;;;;2.53;1.20;;;23.50;47.30;;;;;;6246892;28;20045;-78
2021/08/23 04:15:22;;;;;;;2.40;1.25;;;23.50;47.40;;;;;;6247042;28;20067;-78
2021/08/23 04:18:23;;;;;;;4.15;1.40;;;23.50;47.50;;;;;;6245161;28;20034;-78
2021/08/23 04:21:24;;;;;;;4.85;1.42;;;23.40;47.50;;;;;;6246305;28;20102;-78
2021/08/23 04:24:25;;;;;;;2.78;1.50;;;23.40;47.60;;;;;;6246222;28;20030;-77
2021/08/23 04:27:26;;;;;;;2.47;1.08;;;23.40;47.60;;;;;;6246812;28;20041;-77
2021/08/23 04:30:27;;;;;;;1.45;1.08;;;23.40;47.90;;;;;;6245329;28;20033;-78
2021/08/23 04:33:28;;;;;;;3.53;1.10;;;23.40;48.00;;;;;;6246178;28;20037;-77
2021/08/23 04:36:29;;;;;;;4.32;1.20;;;23.30;48.10;;;;;;6262901;28;20339;-78
2021/08/23 04:39:31;;;;;;;8.13;1.73;;;23.30;48.20;;;;;;6239295;28;20044;-78
2021/08/23 04:42:32;;;;;;;4.03;1.27;;;23.20;48.40;;;;;;6246094;28;20417;-78
2021/08/23 04:45:33;;;;;;;2.28;1.23;;;23.20;48.50;;;;;;6228276;28;20029;-78
2021/08/23 04:48:34;;;;;;;2.50;1.48;;;23.20;48.60;;;;;;6246088;28;20107;-77
2021/08/23 04:51:35;;;;;;;4.80;1.75;;;23.10;48.70;;;;;;6246786;28;20053;-78
2021/08/23 04:54:36;;;;;;;2.60;1.35;;;23.20;48.90;;;;;;6245588;28;20521;-78
2021/08/23 04:57:37;;;;;;;1.95;1.25;;;23.10;48.90;;;;;;6245556;28;20038;-78
2021/08/23 05:00:38;;;;;;;3.03;1.40;;;23.10;48.90;;;;;;6228175;28;20026;-78
2021/08/23 05:03:39;;;;;;;2.95;1.45;;;23.10;49.00;;;;;;6245923;28;20068;-78
2021/08/23 05:06:40;;;;;;;2.85;1.30;;;23.10;49.10;;;;;;6245453;28;20022;-78
2021/08/23 05:09:41;;;;;;;3.88;1.60;;;23.10;49.10;;;;;;6245476;28;20049;-78
2021/08/23 05:12:41;;;;;;;3.22;1.58;;;23.10;49.10;;;;;;6246526;28;20049;-78
2021/08/23 05:15:43;;;;;;;3.67;1.30;;;23.00;49.10;;;;;;6227639;28;20099;-78
2021/08/23 05:18:44;;;;;;;7.38;1.42;;;23.00;49.10;;;;;;6243964;28;20037;-78
2021/08/23 05:21:45;;;;;;;2.55;1.40;;;23.00;49.20;;;;;;6245227;28;20405;-78
2021/08/23 05:24:46;;;;;;;3.47;1.25;;;23.00;49.20;;;;;;6228162;28;20041;-78
2021/08/23 05:27:47;;;;;;;3.85;1.30;;;23.00;49.40;;;;;;6244738;28;20045;-78
2021/08/23 05:30:49;;;;;;;2.20;1.20;;;23.00;49.40;;;;;;6229012;28;20041;-77
2021/08/23 05:33:50;;;;;;;3.08;1.45;;;23.00;49.40;;;;;;6220159;28;20052;-78
2021/08/23 05:36:51;;;;;;;4.57;1.60;;;23.00;49.40;;;;;;6259542;28;20040;-78
2021/08/23 05:39:52;;;;;;;2.80;1.35;;;23.00;49.40;;;;;;6252510;28;20037;-77
2021/08/23 05:42:54;;;;;;;7.63;1.60;;;23.00;49.50;;;;;;6225725;28;20036;-78
2021/08/23 05:45:56;;;;;;;2.92;1.60;;;23.00;49.60;;;;;;6244233;28;20393;-78
2021/08/23 05:48:57;;;;;;;3.00;1.63;;;23.00;49.70;;;;;;6244462;28;20038;-78
2021/08/23 05:51:58;;;;;;;2.63;1.55;;;23.00;50.40;;;;;;6240208;28;20473;-77
2021/08/23 05:55:00;;;;;;;4.50;1.40;;;23.00;49.90;;;;;;6223480;28;20085;-78
2021/08/23 05:58:01;;;;;;;4.60;1.55;;;23.00;49.90;;;;;;6232534;28;20370;-78
2021/08/23 06:01:03;;;;;;;2.20;1.50;;;23.00;50.00;;;;;;6250131;28;20037;-78
2021/08/23 06:04:04;;;;;;;1.95;1.45;;;23.00;50.10;;;;;;6249133;28;20052;-78
2021/08/23 06:07:07;;;;;;;3.55;1.80;;;23.00;50.10;;;;;;6235271;28;20037;-76
2021/08/23 06:10:12;;;;;;;5.55;1.52;;;23.00;50.10;;;;;;6243302;28;20095;-76
2021/08/23 06:13:13;;;;;;;3.13;1.45;;;23.10;50.10;;;;;;6249547;28;20038;-77
2021/08/23 06:16:13;;;;;;;4.25;1.40;;;23.10;50.00;;;;;;6230316;28;20056;-77
2021/08/23 06:19:15;;;;;;;3.60;1.20;;;23.20;49.90;;;;;;6210436;28;20458;-77
2021/08/23 06:22:15;;;;;;;3.42;1.63;;;23.20;49.90;;;;;;6211719;28;20034;-76
2021/08/23 06:25:16;;;;;;;1.40;1.20;;;23.20;49.90;;;;;;6228765;28;20095;-76
2021/08/23 06:28:20;;;;;;;2.60;1.40;;;23.20;49.90;;;;;;6222867;28;20076;-76
2021/08/23 06:31:20;;;;;;;2.72;1.35;;;23.20;49.90;;;;;;6246604;28;20040;-78
2021/08/23 06:34:21;;;;;;;6.20;1.63;;;23.20;49.70;;;;;;6223572;28;20042;-79
2021/08/23 06:37:22;;;;;;;4.05;1.88;;;23.20;49.50;;;;;;6273254;28;20068;-79
2021/08/23 06:40:23;;;;;;;4.60;1.52;;;23.30;49.40;;;;;;6250655;28;20029;-79
2021/08/23 06:43:24;;;;;;;3.72;1.30;;;23.40;49.20;;;;;;6248415;28;20061;-78
2021/08/23 06:46:25;;;;;;;2.88;1.70;;;23.40;49.10;;;;;;6248317;28;20029;-77
2021/08/23 06:49:27;;;;;;;2.55;1.40;;;23.50;49.10;;;;;;6232152;28;20064;-78
2021/08/23 06:52:29;;;;;;;3.22;1.40;;;23.50;49.10;;;;;;6249418;28;20092;-79
2021/08/23 06:55:32;;;;;;;3.85;1.35;;;23.50;49.10;;;;;;6249523;28;20045;-79
2021/08/23 06:58:33;;;;;;;4.95;1.52;;;23.50;49.10;;;;;;6251907;28;20049;-77
2021/08/23 07:01:34;;;;;;;3.47;1.65;;;23.50;49.10;;;;;;6249509;28;20060;-77
2021/08/23 07:04:35;;;;;;;3.38;1.30;;;23.50;49.10;;;;;;6249014;28;20056;-77
2021/08/23 07:07:37;;;;;;;3.28;1.45;;;23.50;49.10;;;;;;6250034;28;20461;-79
2021/08/23 07:10:37;;;;;;;5.63;1.63;;;23.60;49.00;;;;;;6248744;28;20495;-79
2021/08/23 07:13:40;;;;;;;2.75;1.30;;;23.60;48.80;;;;;;6249957;28;20045;-79
2021/08/23 07:16:40;;;;;;;2.63;1.20;;;23.60;48.70;;;;;;6227171;28;20439;-77
2021/08/23 07:19:41;;;;;;;3.58;1.40;;;23.60;48.60;;;;;;6249624;28;20111;-77
2021/08/23 07:22:42;;;;;;;2.72;1.25;;;23.70;48.50;;;;;;6250324;28;20038;-77
2021/08/23 07:25:43;;;;;;;2.40;1.30;;;23.80;48.30;;;;;;6248871;28;20167;-77
2021/08/23 07:28:44;;;;;;;5.43;1.58;;;23.90;48.00;;;;;;6249219;28;20064;-78
2021/08/23 07:31:45;;;;;;;1.35;0.98;;;24.00;47.90;;;;;;6232262;28;20064;-78
2021/08/23 07:34:46;;;;;;;2.60;1.20;;;24.00;47.80;;;;;;6235289;28;20033;-78
2021/08/23 07:37:48;;;;;;;6.05;1.48;;;24.00;47.70;;;;;;6273724;28;20028;-79
2021/08/23 07:40:49;;;;;;;2.85;1.33;;;24.00;47.60;;;;;;6250157;28;20034;-79
2021/08/23 07:43:50;;;;;;;4.18;1.33;;;24.10;47.60;;;;;;6249600;28;20025;-78
2021/08/23 07:46:51;;;;;;;5.78;1.50;;;24.00;47.50;;;;;;6247818;28;20415;-79
2021/08/23 07:49:53;;;;;;;3.13;1.38;;;24.10;47.60;;;;;;6248452;28;20101;-79
2021/08/23 07:52:54;;;;;;;4.15;1.25;;;24.20;47.40;;;;;;6248108;28;20044;-79
2021/08/23 07:55:55;;;;;;;9.95;1.85;;;24.40;47.20;;;;;;6247548;28;20041;-79
2021/08/23 07:58:57;;;;;;;10.07;1.70;;;24.60;47.00;;;;;;6238513;28;20034;-78
2021/08/23 08:01:57;;;;;;;6.80;1.35;;;24.70;46.70;;;;;;6247432;28;20396;-79
2021/08/23 08:04:59;;;;;;;4.72;1.67;;;24.80;46.50;;;;;;6247183;28;20026;-78
2021/08/23 08:07:59;;;;;;;3.00;1.50;;;24.80;46.40;;;;;;6246860;28;20033;-79
2021/08/23 08:11:01;;;;;;;2.28;1.30;;;24.80;46.30;;;;;;6247987;28;20099;-78
2021/08/23 08:14:02;;;;;;;3.63;1.38;;;25.00;46.10;;;;;;6221663;28;20049;-79
2021/08/23 08:17:04;;;;;;;3.60;1.63;;;25.20;45.90;;;;;;6241601;28;20060;-79
2021/08/23 08:20:07;;;;;;;4.78;1.50;;;25.40;45.50;;;;;;6247392;28;20118;-79
2021/08/23 08:23:08;;;;;;;4.88;1.60;;;25.50;45.10;;;;;;6247111;28;20355;-79
2021/08/23 08:26:09;;;;;;;3.85;1.40;;;25.60;45.00;;;;;;6248555;28;20034;-79
2021/08/23 08:29:10;;;;;;;2.83;1.70;;;25.70;44.80;;;;;;6238411;28;20041;-79
2021/08/23 08:32:12;;;;;;;9.40;1.42;;;25.70;44.50;;;;;;6228469;28;20570;-79
2021/08/23 08:35:14;;;;;;;4.40;1.52;;;25.80;44.30;;;;;;6253660;28;20208;-78
2021/08/23 08:38:15;;;;;;;4.03;1.30;;;25.90;44.10;;;;;;6245673;28;20038;-79
2021/08/23 08:41:16;;;;;;;4.93;1.30;;;25.90;44.00;;;;;;6259386;28;20370;-79
2021/08/23 08:44:17;;;;;;;3.00;1.33;;;26.00;43.90;;;;;;6230438;28;20099;-79
2021/08/23 08:47:19;;;;;;;2.67;1.38;;;26.00;43.60;;;;;;6214369;28;20025;-79
2021/08/23 08:50:23;;;;;;;4.45;1.42;;;26.00;43.40;;;;;;6247642;28;20370;-79
2021/08/23 08:53:24;;;;;;;2.78;1.42;;;26.20;43.40;;;;;;6247922;28;20041;-79
2021/08/23 08:56:25;;;;;;;2.75;1.20;;;26.30;43.10;;;;;;6247171;28;20105;-78
2021/08/23 08:59:26;;;;;;;5.40;1.17;;;26.30;42.90;;;;;;6246746;28;20041;-78
2021/08/23 09:02:27;;;;;;;3.78;1.42;;;26.30;42.80;;;;;;6245948;28;20033;-77
2021/08/23 09:05:43;;;;;;;2.72;1.23;;;26.40;42.70;;;;;;6229894;28;20033;-78
2021/08/23 09:08:48;;;;;;;3.22;1.70;;;26.40;42.50;;;;;;6244245;28;20048;-78
2021/08/23 09:11:57;;;;;;;3.85;1.60;;;26.40;42.40;;;;;;6245419;28;20112;-78
2021/08/23 09:14:58;;;;;;;2.53;1.38;;;26.30;42.30;;;;;;6245174;28;20041;-77
2021/08/23 09:18:05;;;;;;;3.38;1.40;;;26.20;42.50;;;;;;6246017;28;20068;-78
2021/08/23 09:21:08;;;;;;;2.83;1.17;;;26.20;42.40;;;;;;6229683;28;20049;-78
2021/08/23 09:24:20;;;;;;;1.35;0.90;;;26.20;42.20;;;;;;6229424;28;20060;-78
2021/08/23 09:27:21;;;;;;;1.95;1.17;;;26.20;42.20;;;;;;6244973;28;20034;-78
2021/08/23 09:30:23;;;;;;;5.15;1.50;;;26.10;42.20;;;;;;6245638;28;20095;-78
2021/08/23 09:33:23;;;;;;;3.00;1.27;;;26.00;42.30;;;;;;6245008;28;20430;-78
2021/08/23 09:36:27;;;;;;;3.80;1.50;;;26.00;42.50;;;;;;6246103;28;20033;-80
2021/08/23 09:39:29;;;;;;;1.95;1.33;;;26.00;42.50;;;;;;6246234;28;20033;-79
2021/08/23 09:42:30;;;;;;;3.00;1.10;;;25.90;42.30;;;;;;6245675;28;20041;-80
2021/08/23 09:45:31;;;;;;;2.30;1.30;;;26.00;42.40;;;;;;6246107;28;20033;-79
2021/08/23 09:48:31;;;;;;;11.45;1.50;;;26.00;42.30;;;;;;6246869;28;20041;-78
2021/08/23 09:51:38;;;;;;;7.55;1.50;;;26.10;41.90;;;;;;6246585;28;20029;-78
2021/08/23 09:54:40;;;;;;;6.55;1.05;;;26.10;41.70;;;;;;6246919;28;20037;-78
2021/08/23 09:57:41;;;;;;;3.58;1.48;;;26.20;41.50;;;;;;6245840;28;20354;-80
2021/08/23 10:00:44;;;;;;;1.85;1.17;;;26.20;41.30;;;;;;6245874;28;20041;-79
2021/08/23 10:03:45;;;;;;;2.47;1.30;;;26.30;41.20;;;;;;6244626;28;20084;-79
2021/08/23 10:06:48;;;;;;;2.67;1.13;;;26.30;41.10;;;;;;6244572;28;20073;-79
2021/08/23 10:09:49;;;;;;;1.65;1.17;;;26.20;41.00;;;;;;6244745;28;20121;-79
2021/08/23 10:12:51;;;;;;;3.15;1.35;;;26.30;41.00;;;;;;6229009;28;20042;-78
2021/08/23 10:15:52;;;;;;;2.67;0.98;;;26.30;40.90;;;;;;6218958;28;20167;-77
2021/08/23 10:18:53;;;;;;;3.33;1.08;;;26.40;40.60;;;;;;6242349;28;20041;-78
2021/08/23 10:21:54;;;;;;;6.18;1.17;;;26.40;40.40;;;;;;6245271;28;20045;-78
2021/08/23 10:24:55;;;;;;;4.78;1.50;;;26.30;40.50;;;;;;6243447;28;20042;-78
2021/08/23 10:28:12;;;;;;;2.42;1.30;;;26.40;40.60;;;;;;6243737;28;20073;-78
2021/08/23 10:31:13;;;;;;;4.95;1.30;;;26.40;40.50;;;;;;6243916;28;20136;-78
2021/08/23 10:34:19;;;;;;;1.88;1.20;;;26.60;40.10;;;;;;6246340;28;20493;-77
2021/08/23 10:37:23;;;;;;;3.20;1.50;;;26.60;39.70;;;;;;6246854;28;20049;-78
2021/08/23 10:40:34;;;;;;;1.40;1.10;;;26.70;39.70;;;;;;6245546;28;20385;-78
2021/08/23 10:43:58;;;;;;;2.45;1.33;;;26.70;39.40;;;;;;6247051;28;20047;-77
2021/08/23 10:47:14;;;;;;;2.00;1.40;;;26.70;39.20;;;;;;6249752;28;20041;-79
2021/08/23 10:50:25;;;;;;;2.40;1.45;;;26.80;39.20;;;;;;6232349;28;20351;-78
2021/08/23 10:53:34;;;;;;;5.95;1.10;;;26.90;39.00;;;;;;6247856;28;20041;-78
2021/08/23 10:56:38;;;;;;;1.95;1.08;;;26.90;38.90;;;;;;6225694;28;20101;-78
2021/08/23 10:59:47;;;;;;;5.25;1.40;;;27.20;38.80;;;;;;6249150;28;20025;-79
2021/08/23 11:02:58;;;;;;;3.85;1.20;;;27.30;38.60;;;;;;6246915;28;20034;-78
2021/08/23 11:06:05;;;;;;;2.17;1.05;;;27.40;38.50;;;;;;6250014;28;20112;-78
2021/08/23 11:09:11;;;;;;;3.50;1.27;;;27.40;38.20;;;;;;6248813;28;20051;-79
2021/08/23 11:12:17;;;;;;;2.03;1.10;;;27.50;38.30;;;;;;6242048;28;20037;-77
2021/08/23 11:15:27;;;;;;;5.30;1.50;;;27.70;38.20;;;;;;6261436;28;20037;-80
2021/08/23 11:18:28;;;;;;;5.60;1.50;;;27.90;37.80;;;;;;6223892;28;20201;-78
2021/08/23 11:21:30;;;;;;;4.50;1.30;;;28.10;37.40;;;;;;6249994;28;20042;-78
2021/08/23 11:24:33;;;;;;;2.78;1.10;;;28.10;37.00;;;;;;6248573;28;20033;-77
2021/08/23 11:27:34;;;;;;;3.55;0.90;;;28.10;37.20;;;;;;6247609;28;20046;-78
2021/08/23 11:30:43;;;;;;;11.15;1.50;;;28.30;36.70;;;;;;6249353;28;20043;-79
2021/08/23 11:33:44;;;;;;;4.85;1.00;;;28.30;36.70;;;;;;6246899;28;20061;-77
2021/08/23 11:36:45;;;;;;;2.08;1.00;;;28.30;36.80;;;;;;6247085;28;20045;-79
2021/08/23 11:39:46;;;;;;;2.58;1.30;;;28.40;36.70;;;;;;6247236;28;20037;-80
2021/08/23 11:42:51;;;;;;;3.33;1.20;;;28.50;36.50;;;;;;6249046;28;20034;-81
2021/08/23 11:45:53;;;;;;;1.85;1.13;;;28.40;36.30;;;;;;6248014;28;20052;-78
2021/08/23 11:48:55;;;;;;;3.75;1.60;;;28.30;36.60;;;;;;6246666;28;20064;-77
2021/08/23 11:51:57;;;;;;;6.03;1.35;;;28.00;36.70;;;;;;6247130;28;20097;-78
2021/08/23 11:54:58;;;;;;;3.50;1.20;;;27.90;37.00;;;;;;6247236;28;20120;-77
2021/08/23 11:58:07;;;;;;;5.03;1.40;;;27.80;37.10;;;;;;6246587;28;20042;-78
2021/08/23 12:01:12;;;;;;;5.50;1.40;;;27.70;37.30;;;;;;6246295;28;20099;-78
2021/08/23 12:04:21;;;;;;;2.60;1.10;;;27.60;37.20;;;;;;6247277;28;20450;-78
2021/08/23 12:07:22;;;;;;;1.83;1.17;;;27.60;37.40;;;;;;6246051;28;20377;-77
2021/08/23 12:10:28;;;;;;;7.28;1.20;;;27.60;37.50;;;;;;6246937;28;20362;-77
2021/08/23 12:13:51;;;;;;;4.15;1.30;;;27.60;37.50;;;;;;6253411;28;20044;-79
2021/08/23 12:16:54;;;;;;;2.80;1.20;;;27.60;37.40;;;;;;6245429;28;20132;-78
2021/08/23 12:20:08;;;;;;;3.63;1.42;;;27.50;37.30;;;;;;6246578;28;20049;-78
2021/08/23 12:23:09;;;;;;;2.55;1.30;;;27.50;37.10;;;;;;6247399;28;20042;-79
2021/08/23 12:26:13;;;;;;;4.78;1.30;;;27.50;37.00;;;;;;6229368;28;20431;-78
2021/08/23 12:29:17;;;;;;;4.20;1.33;;;27.60;37.20;;;;;;6247585;28;20045;-78
2021/08/23 12:32:18;;;;;;;2.58;0.90;;;27.50;37.20;;;;;;6229610;28;20049;-77
2021/08/23 12:35:28;;;;;;;1.63;1.00;;;27.60;37.20;;;;;;6248653;28;20119;-78
2021/08/23 12:38:29;;;;;;;3.63;1.40;;;27.90;37.10;;;;;;6246236;28;20041;-79
2021/08/23 12:41:30;;;;;;;2.50;1.15;;;28.70;36.10;;;;;;6246917;28;20369;-78
2021/08/23 12:44:31;;;;;;;4.57;1.05;;;29.50;34.50;;;;;;6246203;28;20462;-79
2021/08/23 12:47:33;;;;;;;5.00;1.25;;;29.90;33.50;;;;;;6223931;28;20485;-76
2021/08/23 12:50:34;;;;;;;1.98;1.17;;;30.10;33.10;;;;;;6229344;28;20038;-77
2021/08/23 12:53:35;;;;;;;1.92;1.20;;;30.10;33.10;;;;;;6235852;28;20041;-78
2021/08/23 12:56:38;;;;;;;4.60;1.23;;;30.50;32.60;;;;;;6246569;28;20485;-77
2021/08/23 12:59:38;;;;;;;2.22;1.02;;;30.50;32.30;;;;;;6246617;28;20045;-77
2021/08/23 13:02:40;;;;;;;1.52;0.90;;;30.20;32.60;;;;;;6245406;28;20033;-80
2021/08/23 13:05:41;;;;;;;2.83;1.10;;;30.00;33.10;;;;;;6247471;28;20136;-79
2021/08/23 13:08:42;;;;;;;3.50;1.10;;;29.80;33.50;;;;;;6246873;28;20046;-78
2021/08/23 13:11:43;;;;;;;6.85;0.98;;;29.60;33.60;;;;;;6246568;28;20033;-78
2021/08/23 13:14:44;;;;;;;1.58;1.05;;;29.50;33.80;;;;;;6228767;28;20060;-78
2021/08/23 13:17:46;;;;;;;2.10;1.30;;;29.30;34.10;;;;;;6245043;28;20037;-78
2021/08/23 13:20:47;;;;;;;1.75;1.02;;;29.20;34.40;;;;;;6246241;28;20346;-78
2021/08/23 13:23:48;;;;;;;2.05;0.90;;;29.00;34.40;;;;;;6231992;28;20446;-78
2021/08/23 13:26:49;;;;;;;2.95;0.95;;;29.00;34.60;;;;;;6221715;28;20046;-78
2021/08/23 13:29:50;;;;;;;2.85;1.00;;;29.00;34.80;;;;;;6220955;28;20421;-78
2021/08/23 13:32:51;;;;;;;7.80;1.02;;;29.00;34.70;;;;;;6230263;28;20044;-79
2021/08/23 13:35:52;;;;;;;3.95;1.13;;;29.00;34.70;;;;;;6246148;28;20351;-79
2021/08/23 13:38:54;;;;;;;2.17;1.10;;;29.00;34.70;;;;;;6245121;28;20108;-79
2021/08/23 13:41:55;;;;;;;6.28;1.10;;;29.10;34.80;;;;;;6226203;28;20385;-78
2021/08/23 13:44:56;;;;;;;3.95;0.95;;;29.10;34.70;;;;;;6227624;28;20092;-80
2021/08/23 13:47:57;;;;;;;3.42;1.00;;;29.00;34.80;;;;;;6229345;28;20472;-78
2021/08/23 13:51:01;;;;;;;2.72;1.10;;;29.00;34.80;;;;;;6228370;28;20065;-78
2021/08/23 13:54:02;;;;;;;2.10;0.75;;;29.00;34.80;;;;;;6244460;28;20037;-78
2021/08/23 13:57:03;;;;;;;1.63;0.90;;;29.00;34.90;;;;;;6228258;28;20103;-78
2021/08/23 14:00:06;;;;;;;2.63;1.00;;;29.00;34.90;;;;;;6227140;28;20044;-78
2021/08/23 14:03:12;;;;;;;1.40;0.90;;;29.00;34.80;;;;;;6243507;28;20030;-78
2021/08/23 14:06:13;;;;;;;3.00;0.88;;;29.50;34.40;;;;;;6242777;28;20472;-78
2021/08/23 14:09:14;;;;;;;1.85;0.70;;;30.70;32.50;;;;;;6244289;28;20038;-78
2021/08/23 14:12:16;;;;;;;3.45;1.40;;;30.80;32.00;;;;;;6245515;28;20037;-78
2021/08/23 14:15:17;;;;;;;3.08;1.00;;;30.50;32.20;;;;;;6222393;28;20109;-79
2021/08/23 14:18:18;;;;;;;2.70;0.98;;;30.30;32.40;;;;;;6241755;28;20116;-78
2021/08/23 14:21:19;;;;;;;4.15;1.20;;;30.10;32.70;;;;;;6249114;28;20469;-78
2021/08/23 14:24:20;;;;;;;4.20;1.48;;;30.10;33.10;;;;;;6248718;28;20060;-78
2021/08/23 14:27:21;;;;;;;2.22;0.85;;;30.10;33.10;;;;;;6250951;28;20033;-77
2021/08/23 14:30:22;;;;;;;4.53;1.10;;;30.40;32.70;;;;;;6249698;28;20041;-77
2021/08/23 14:33:23;;;;;;;1.40;0.85;;;30.40;32.60;;;;;;6248790;28;20422;-78
2021/08/23 14:36:24;;;;;;;5.78;1.00;;;30.40;32.90;;;;;;6250173;28;20037;-78
2021/08/23 14:39:25;;;;;;;1.60;0.82;;;30.30;33.20;;;;;;6248989;28;20044;-78
2021/08/23 14:42:26;;;;;;;1.90;1.00;;;30.10;33.50;;;;;;6248272;28;20025;-78
2021/08/23 14:45:27;;;;;;;4.63;1.42;;;30.10;33.90;;;;;;6249858;28;20406;-78
2021/08/23 14:48:28;;;;;;;2.58;1.48;;;30.00;34.00;;;;;;6232824;28;20030;-78
2021/08/23 14:51:29;;;;;;;1.10;1.00;;;29.80;34.10;;;;;;6249529;28;20062;-79
2021/08/23 14:54:30;;;;;;;1.75;1.02;;;29.80;34.10;;;;;;6250812;28;20041;-78
2021/08/23 14:57:31;;;;;;;2.13;1.05;;;29.70;34.30;;;;;;6231974;28;20033;-78
2021/08/23 15:00:32;;;;;;;3.17;0.77;;;29.60;34.70;;;;;;6249343;28;20099;-78
2021/08/23 15:03:33;;;;;;;2.38;1.00;;;29.40;35.20;;;;;;6248519;28;20037;-78
2021/08/23 15:06:34;;;;;;;1.73;0.98;;;29.30;35.60;;;;;;6248846;28;20084;-78
2021/08/23 15:09:35;;;;;;;4.88;1.15;;;29.20;36.00;;;;;;6237973;28;20041;-78
2021/08/23 15:12:37;;;;;;;2.00;1.15;;;29.10;36.20;;;;;;6224528;28;20042;-78
2021/08/23 15:15:38;;;;;;;2.15;0.88;;;29.10;36.40;;;;;;6239418;28;24019;-78
2021/08/23 15:18:41;;;;;;;3.47;0.95;;;29.00;36.60;;;;;;6224515;28;20037;-77
2021/08/23 15:21:42;;;;;;;1.88;1.00;;;28.90;37.00;;;;;;6226597;28;20051;-79
2021/08/23 15:24:43;;;;;;;1.48;0.90;;;28.80;37.20;;;;;;6246187;28;20041;-78
2021/08/23 15:27:44;;;;;;;7.10;1.40;;;28.70;37.40;;;;;;6246767;28;20466;-78
2021/08/23 15:30:45;;;;;;;1.38;0.85;;;28.60;37.60;;;;;;6230502;28;20030;-78
2021/08/23 15:33:46;;;;;;;3.20;0.98;;;28.60;37.80;;;;;;6247908;28;20041;-78
2021/08/23 15:36:47;;;;;;;2.60;1.15;;;28.70;37.90;;;;;;6230966;28;20049;-78
2021/08/23 15:39:51;;;;;;;3.38;1.17;;;28.70;37.80;;;;;;6247178;28;20037;-78
2021/08/23 15:42:53;;;;;;;5.13;1.17;;;28.70;37.80;;;;;;6248490;28;20127;-79
2021/08/23 15:45:55;;;;;;;5.30;2.10;;;28.80;37.80;;;;;;6246987;28;20037;-78
2021/08/23 15:48:56;;;;;;;2.40;1.40;;;28.90;37.70;;;;;;6247782;28;20117;-78